Saturday, October 25, 2014
01:31 UTC
  |  Log In   |  Register Free
Airport Search:

Fairfield County Airport
(KFDW)

Fairfield County Airport Diagram
No Airport Diagram Available

FAA data valid effective September 18, 2014 - November 13, 2014 (unless otherwise noted).

 
 
 
 
 
 
 
 
 
 
 
 
 
 

Current Aviation Weather for Fairfield County Airport (KFDW)

The most recent METAR observation for KFDW was updated at: 0111
METAR Summary (Translated METAR)
KFDW
250055Z AUTO 00000KT 10SM CLR 12/11 A3001 RMK AO1
KCUB
250053Z AUTO 00000KT 10SM CLR 14/11 A3002 RMK AO2 SLP163 T01390106
(21.5 nm SE from KFDW)
KCAE
250056Z 27004KT 10SM SCT150 13/10 A3001 RMK AO2 SLP160 T01330100
(22.6 nm SW from KFDW)
TAF Summary (Translated TAF)
KCUB
(21.5 nm SE from KFDW)
242039Z 2421/2518 VRB04KT P6SM BKN200
KCAE
(22.6 nm SW from KFDW)
242039Z 2421/2518 VRB05KT P6SM BKN200
  Airport Weather Conditions for KFDW

 Current Weather at FDW
54° F
Fair
North winds at 0.0 mph
FDW NOAA Radar

Pressure: 30.01 in
Humidity: 94%
Wind: Calm
Dew Point: 51.8°F
Visibility: 10.00 mi


Airport Weather Forecast for KFDW

Translated METAR and TAF for KFDW
Translated METAR for KFDW (0126 UTC 25 October 2014)
found at http://aviationweather.gov/adds/metars/
 
METAR text: KFDW 250115Z AUTO 00000KT 10SM CLR 12/11 A3001 RMK AO1
Conditions at: KFDW (WINNSBORO , SC, US) observed 0115 UTC 25 October 2014
Temperature: 12.0°C (54°F)
Dewpoint: 11.0°C (52°F) [RH = 94%]
Pressure (altimeter): 30.01 inches Hg (1016.3 mb)
Winds: calm
Visibility: 10 or more miles (16+ km)
Ceiling: at least 12,000 feet AGL
Clouds: sky clear below 12,000 feet AGL
Weather: automated observation with no human augmentation;
there may or may not be significant weather present at this time
Translated TAF for KFDW

There is no translated TAF available for this airport

Find All Airport Services Find A Hotel Find A Rental Car Find A Golf Course Find A Restaurant $100 Hamburger



FBO's on the Field
FBO Company Facility Photos Services Transportation Aviation Fuel Prices: Prices include tax
Catering Weather Repair Courtesy Rental Type 100LL JetA JetA+ MOGAS 8087
 
S & S Aviation Services

This FBO has not yet been rated
FS:Shell
Last Updated: Oct-09
Login to update fuel prices
SS:
Contact S & S Aviation ServicesMore FBO Information
 
Add another FBO Facility Photos Catering Weather Repair Courtesy Rental Type 100LL JetA JetA+ MOGAS 8087
Services Transportation Aviation Fuel Prices: Prices include tax


model-print
model-print
model-print
model-print